ADDS METAR Data INFO
IDs: Format: Raw Decoded Include TAF

Data at: 0233 UTC 26 Jul 2017

KSWW 260215Z AUTO 14007KT 10SM CLR 31/16 A3008 RMK AO2 T03070161
KSWW 260155Z AUTO 14008KT 10SM CLR 31/16 A3007 RMK AO2 T03140160
KSWW 260135Z AUTO 13009G15KT 10SM CLR 32/15 A3007 RMK AO2 T03230154
KSWW 260115Z AUTO 13013G17KT 10SM CLR 33/15 A3006 RMK AO2 T03290151
KSWW 260055Z AUTO 12009KT 10SM CLR 33/15 A3006 RMK AO2 T03340153
KSWW 260035Z AUTO 13011KT 10SM SCT075 34/15 A3006 RMK AO2 T03400150
KSWW 260015Z AUTO 13010KT 10SM CLR 35/15 A3005 RMK AO2 LTG DSNT NW T03450152
KSWW 252355Z AUTO 12011KT 10SM CLR 35/15 A3005 RMK AO2 T03460152 10360 20334
KSWW 252335Z AUTO 13014G18KT 10SM CLR 35/16 A3005 RMK AO2 T03510156
KSWW 252315Z AUTO 14011G17KT 10SM CLR 35/15 A3005 RMK AO2 T03530152
KSWW 252255Z AUTO 13012KT 10SM CLR 35/15 A3006 RMK AO2 T03500152
KSWW 252235Z AUTO 15012G16KT 10SM SCT100 36/15 A3006 RMK AO2 T03580154
KSWW 252215Z AUTO 13011KT 10SM SCT100 36/15 A3006 RMK AO2 LTG DSNT W T03600154
KSWW 252155Z AUTO 16008G14KT 10SM SCT110 34/15 A3007 RMK AO2 T03430148
KSWW 252135Z AUTO 14007KT 10SM CLR 35/15 A3007 RMK AO2 T03450151
KSWW 252115Z AUTO 16009G14KT 10SM SCT070 34/16 A3007 RMK AO2 T03430155
KSWW 252055Z AUTO 17010G17KT 10SM SCT070 36/16 A3008 RMK AO2 T03600162
KSWW 252035Z AUTO 14010G15KT 10SM SCT075 34/15 A3009 RMK AO2 T03400154
KSWW 252015Z AUTO 15011G16KT 10SM SCT065 SCT090 34/15 A3009 RMK AO2 T03420153
KSWW 251955Z AUTO 14009KT 10SM SCT065 BKN085 34/16 A3010 RMK AO2 T03430156
KSWW 251935Z AUTO 14010G19KT 10SM SCT065 BKN085 35/17 A3010 RMK AO2 T03460168
KSWW 251915Z AUTO 15011G14KT 10SM SCT075 SCT080 35/16 A3011 RMK AO2 T03520163
KSWW 251855Z AUTO 11007KT 10SM SCT060 34/16 A3012 RMK AO2 T03420156
KSWW 251835Z AUTO 17008G14KT 10SM CLR 35/17 A3012 RMK AO2 T03450166
KSWW 251815Z AUTO 16011G15KT 130V200 10SM CLR 34/17 A3012 RMK AO2 T03380174
KSWW 251755Z AUTO 20008KT 10SM CLR 33/18 A3013 RMK AO2 T03340179 10334 20230
KSWW 251735Z AUTO 18010G14KT 10SM CLR 33/19 A3013 RMK AO2 T03300187
KSWW 251715Z AUTO 19011G16KT 10SM CLR 33/19 A3013 RMK AO2 T03260188
KSWW 251655Z AUTO 18009G14KT 10SM CLR 32/19 A3014 RMK AO2 T03190194
KSWW 251635Z AUTO 20010KT 10SM CLR 31/20 A3014 RMK AO2 T03140195
KSWW 251615Z AUTO 19010KT 10SM CLR 31/20 A3014 RMK AO2 T03090198
KSWW 251555Z AUTO 18012G18KT 10SM CLR 31/20 A3014 RMK AO2 T03050201
KSWW 251535Z AUTO 17014KT 10SM CLR 30/20 A3013 RMK AO2 T02980200
KSWW 251515Z AUTO 19014KT 10SM CLR 29/20 A3013 RMK AO2 T02900201
KSWW 251455Z AUTO 18011KT 10SM CLR 29/20 A3013 RMK AO2 T02850204
KSWW 251435Z AUTO 18016G19KT 10SM CLR 28/20 A3013 RMK AO2 T02800201
KSWW 251415Z AUTO 18016KT 10SM CLR 27/20 A3013 RMK AO2 T02730202
KSWW 251355Z AUTO 17013KT 10SM CLR 27/20 A3013 RMK AO2 T02650202
KSWW 251335Z AUTO 17013KT 10SM CLR 26/20 A3013 RMK AO2 T02550202
KSWW 251315Z AUTO 16011KT 10SM CLR 25/20 A3012 RMK AO2 T02470202
KSWW 251255Z AUTO 16010KT 10SM CLR 24/20 A3012 RMK AO2 T02420202
KSWW 251235Z AUTO 17011KT 10SM CLR 24/20 A3011 RMK AO2 T02370200
KSWW 251215Z AUTO 17009KT 10SM CLR 23/20 A3011 RMK AO2 T02310198
KSWW 251155Z AUTO 17009KT 7SM CLR 23/20 A3010 RMK AO2 T02290198 10246 20228
KSWW 251135Z AUTO 17008KT 10SM CLR 23/20 A3009 RMK AO2 T02300198
KSWW 251115Z AUTO 17009KT 10SM CLR 23/20 A3009 RMK AO2 T02320197
KSWW 251055Z AUTO 17009KT 10SM CLR 23/20 A3009 RMK AO2 T02320197
KSWW 251035Z AUTO 16009KT 10SM CLR 23/19 A3009 RMK AO2 T02310193
KSWW 251015Z AUTO 16008KT 10SM CLR 23/19 A3008 RMK AO2 T02290190
KSWW 250955Z AUTO 15008KT 10SM CLR 23/19 A3008 RMK AO2 T02310187
KSWW 250935Z AUTO 15008KT 10SM CLR 23/19 A3008 RMK AO2 T02300187
KSWW 250915Z AUTO 14008KT 10SM CLR 23/19 A3008 RMK AO2 T02330186
KSWW 250855Z AUTO 14008KT 10SM CLR 24/19 A3007 RMK AO2 T02350185
KSWW 250835Z AUTO 15008KT 10SM CLR 23/19 A3007 RMK AO2 T02300187
KSWW 250815Z AUTO 18006KT 10SM CLR 24/19 A3007 RMK AO2 T02370187
KSWW 250755Z AUTO 18005KT 10SM CLR 24/19 A3007 RMK AO2 T02380187
KSWW 250735Z AUTO 18006KT 10SM CLR 24/19 A3007 RMK AO2 T02360188
KSWW 250715Z AUTO 17006KT 10SM CLR 24/19 A3007 RMK AO2 T02360189
KSWW 250655Z AUTO 16007KT 10SM CLR 24/19 A3007 RMK AO2 T02400187
KSWW 250635Z AUTO 18005KT 10SM CLR 24/19 A3008 RMK AO2 T02410186
KSWW 250615Z AUTO 16007KT 10SM CLR 25/19 A3007 RMK AO2 T02450187
KSWW 250555Z AUTO 16007KT 10SM CLR 24/19 A3008 RMK AO2 T02430187 10324 20243 403480224
KSWW 250535Z AUTO 17006KT 10SM CLR 25/19 A3008 RMK AO2 T02520187
KSWW 250515Z AUTO 17007KT 10SM CLR 26/19 A3007 RMK AO2 T02580185
KSWW 250455Z AUTO 19008KT 10SM CLR 26/19 A3007 RMK AO2 T02570185
KSWW 250435Z AUTO 16005KT 10SM CLR 26/19 A3007 RMK AO2 T02570185
KSWW 250415Z AUTO 16007KT 10SM CLR 26/19 A3006 RMK AO2 T02610185
KSWW 250355Z AUTO 16007KT 10SM CLR 27/18 A3006 RMK AO2 LTG DSNT W T02660183
KSWW 250335Z AUTO 14007KT 10SM CLR 27/19 A3005 RMK AO2 T02710185
KSWW 250315Z AUTO 14009KT 10SM CLR 28/19 A3005 RMK AO2 T02760188
KSWW 250255Z AUTO 15011KT 10SM CLR 28/19 A3005 RMK AO2 T02810190
KSWW 250235Z AUTO 15012KT 10SM CLR 29/19 A3004 RMK AO2 LTG DSNT W T02850190
KSWW 250210Z AUTO 16012G20KT 10SM CLR 29/18 A3003 RMK AO2 T02910183
KSWW 250155Z AUTO 15015G22KT 10SM CLR 30/18 A3003 RMK AO2 T03010181
KSWW 250135Z AUTO 13009G14KT 10SM CLR 31/18 A3002 RMK AO2 T03060184
KSWW 250115Z AUTO 13010G15KT 10SM CLR 31/18 A3002 RMK AO2 T03100182
KSWW 250055Z AUTO 14008KT 10SM CLR 31/18 A3001 RMK AO2 T03120184
KSWW 250035Z AUTO 15012KT 10SM CLR 31/18 A3000 RMK AO2 LTG DSNT S T03140182
KSWW 250015Z AUTO 16012G15KT 10SM CLR 32/18 A2999 RMK AO2 T03160179
KSWW 242355Z AUTO 16014KT 10SM CLR 33/18 A2999 RMK AO2 T03250176 10348 20313
KSWW 242335Z AUTO 13010KT 10SM CLR 33/17 A2999 RMK AO2 LTG DSNT S AND NW T03300174
KSWW 242315Z AUTO 10011KT 10SM CLR 33/17 A2999 RMK AO2 LTG DSNT NW T03330169
KSWW 242255Z AUTO 10010KT 10SM CLR 34/17 A2999 RMK AO2 T03350168
KSWW 242235Z AUTO 08010KT 10SM SCT080 34/16 A2999 RMK AO2 T03410156
KSWW 242215Z AUTO 12007G21KT 10SM SCT080 35/15 A2999 RMK AO2 T03480149
KSWW 242155Z AUTO 08012G15KT 10SM CLR 34/17 A2999 RMK AO2 T03440168
KSWW 242135Z AUTO 06008KT 050V110 10SM CLR 34/15 A2999 RMK AO2 T03380150
KSWW 242115Z AUTO 09005KT 10SM SCT100 SCT110 34/15 A3000 RMK AO2 T03440147
KSWW 242055Z AUTO 11007KT 10SM CLR 34/16 A3000 RMK AO2 T03410161
KSWW 242035Z AUTO 08008KT 10SM CLR 34/16 A3001 RMK AO2 T03400164
KSWW 242015Z AUTO 09010G16KT 10SM SCT075 SCT080 33/17 A3001 RMK AO2 LTG DSNT NE T03320173
KSWW 241955Z AUTO 00000KT 10SM SCT060 34/17 A3002 RMK AO2 T03370169
KSWW 241935Z AUTO 00000KT 10SM SCT100 SCT120 33/17 A3003 RMK AO2 T03340172
KSWW 241915Z AUTO 05003KT 10SM SCT100 SCT120 33/16 A3004 RMK AO2 T03300160
KSWW 241855Z AUTO 19005KT 10SM SCT120 32/16 A3005 RMK AO2 T03210161
KSWW 241835Z AUTO 23004KT 10SM BKN120 32/17 A3006 RMK AO2 T03200169
KSWW 241815Z AUTO 21003KT 10SM OVC120 31/17 A3006 RMK AO2 T03130165
KSWW 241755Z AUTO 19005KT 10SM BKN120 31/17 A3006 RMK AO2 T03130172 10316 20226
KSWW 241735Z AUTO 22004KT 10SM BKN120 32/16 A3006 RMK AO2 T03150161
KSWW 241715Z AUTO 19004KT 10SM SCT120 31/17 A3007 RMK AO2 T03110168
KSWW 241655Z AUTO 20007KT 10SM CLR 31/18 A3007 RMK AO2 T03070177
KSWW 241635Z AUTO 20008KT 10SM CLR 31/18 A3007 RMK AO2 T03050181
KSWW 241615Z AUTO 20009KT 10SM SCT120 29/19 A3007 RMK AO2 T02940186
KSWW 241555Z AUTO 21008KT 10SM SCT120 29/19 A3007 RMK AO2 T02890188
KSWW 241535Z AUTO 23007KT 10SM CLR 28/19 A3007 RMK AO2 T02810193
KSWW 241515Z AUTO 21008KT 10SM CLR 28/19 A3006 RMK AO2 T02780190
KSWW 241455Z AUTO 21008KT 10SM CLR 28/19 A3006 RMK AO2 T02760188
KSWW 241435Z AUTO 20005KT 10SM CLR 27/18 A3006 RMK AO2 T02710183